sensor_id;sensor_type;location;lat;lon;timestamp;temperature;humidity
21259;DHT22;10787;53.364;-1.480;2022-09-24T00:01:30;11.00;99.90
21259;DHT22;10787;53.364;-1.480;2022-09-24T00:03:59;11.00;99.90
21259;DHT22;10787;53.364;-1.480;2022-09-24T00:06:27;11.00;99.90
21259;DHT22;10787;53.364;-1.480;2022-09-24T00:08:54;10.90;99.90
21259;DHT22;10787;53.364;-1.480;2022-09-24T00:11:21;11.00;99.90
21259;DHT22;10787;53.364;-1.480;2022-09-24T00:13:49;10.90;99.90
21259;DHT22;10787;53.364;-1.480;2022-09-24T00:16:16;10.90;99.90
21259;DHT22;10787;53.364;-1.480;2022-09-24T00:18:43;10.90;99.90
21259;DHT22;10787;53.364;-1.480;2022-09-24T00:23:54;10.70;99.90
21259;DHT22;10787;53.364;-1.480;2022-09-24T00:26:21;10.70;99.90
21259;DHT22;10787;53.364;-1.480;2022-09-24T00:29:07;10.60;99.90
21259;DHT22;10787;53.364;-1.480;2022-09-24T00:31:33;10.50;99.90
21259;DHT22;10787;53.364;-1.480;2022-09-24T00:33:59;10.50;99.90
21259;DHT22;10787;53.364;-1.480;2022-09-24T00:36:26;10.50;99.90
21259;DHT22;10787;53.364;-1.480;2022-09-24T00:38:54;10.50;99.90
21259;DHT22;10787;53.364;-1.480;2022-09-24T00:41:24;10.50;99.90
21259;DHT22;10787;53.364;-1.480;2022-09-24T00:43:50;10.50;99.90
21259;DHT22;10787;53.364;-1.480;2022-09-24T00:46:57;10.50;99.90
21259;DHT22;10787;53.364;-1.480;2022-09-24T00:49:18;10.40;99.90
21259;DHT22;10787;53.364;-1.480;2022-09-24T00:51:46;10.30;99.90
21259;DHT22;10787;53.364;-1.480;2022-09-24T00:54:23;10.30;99.90
21259;DHT22;10787;53.364;-1.480;2022-09-24T00:56:50;10.30;99.90
21259;DHT22;10787;53.364;-1.480;2022-09-24T00:59:20;10.30;99.90
21259;DHT22;10787;53.364;-1.480;2022-09-24T01:01:49;10.30;99.90
21259;DHT22;10787;53.364;-1.480;2022-09-24T01:04:18;10.30;99.90
21259;DHT22;10787;53.364;-1.480;2022-09-24T01:06:47;10.30;99.90
21259;DHT22;10787;53.364;-1.480;2022-09-24T01:09:14;10.30;99.90
21259;DHT22;10787;53.364;-1.480;2022-09-24T01:11:48;10.30;99.90
21259;DHT22;10787;53.364;-1.480;2022-09-24T01:30:47;9.80;99.90
21259;DHT22;10787;53.364;-1.480;2022-09-24T01:33:19;9.80;99.90
21259;DHT22;10787;53.364;-1.480;2022-09-24T01:35:52;9.80;99.90
21259;DHT22;10787;53.364;-1.480;2022-09-24T01:38:30;9.70;99.90
21259;DHT22;10787;53.364;-1.480;2022-09-24T01:41:01;9.70;99.90
21259;DHT22;10787;53.364;-1.480;2022-09-24T01:43:28;9.70;99.90
21259;DHT22;10787;53.364;-1.480;2022-09-24T01:45:56;9.70;99.90
21259;DHT22;10787;53.364;-1.480;2022-09-24T01:48:25;9.70;99.90
21259;DHT22;10787;53.364;-1.480;2022-09-24T01:53:27;9.50;99.90
21259;DHT22;10787;53.364;-1.480;2022-09-24T01:55:59;9.50;99.90
21259;DHT22;10787;53.364;-1.480;2022-09-24T01:58:39;9.50;99.90
21259;DHT22;10787;53.364;-1.480;2022-09-24T02:01:12;9.40;99.90
21259;DHT22;10787;53.364;-1.480;2022-09-24T02:03:43;9.50;99.90
21259;DHT22;10787;53.364;-1.480;2022-09-24T02:06:18;9.50;99.90
21259;DHT22;10787;53.364;-1.480;2022-09-24T02:08:47;9.50;99.90
21259;DHT22;10787;53.364;-1.480;2022-09-24T02:11:21;9.50;99.90
21259;DHT22;10787;53.364;-1.480;2022-09-24T02:14:01;9.50;99.90
21259;DHT22;10787;53.364;-1.480;2022-09-24T02:16:37;9.50;99.90
21259;DHT22;10787;53.364;-1.480;2022-09-24T02:19:11;9.50;99.90
21259;DHT22;10787;53.364;-1.480;2022-09-24T02:21:40;9.50;99.90
21259;DHT22;10787;53.364;-1.480;2022-09-24T02:24:14;9.50;99.90
21259;DHT22;10787;53.364;-1.480;2022-09-24T02:26:41;9.50;99.90
21259;DHT22;10787;53.364;-1.480;2022-09-24T02:29:07;9.40;99.90
21259;DHT22;10787;53.364;-1.480;2022-09-24T02:31:39;9.40;99.90
21259;DHT22;10787;53.364;-1.480;2022-09-24T02:34:10;9.40;99.90
21259;DHT22;10787;53.364;-1.480;2022-09-24T02:37:03;9.30;99.90
21259;DHT22;10787;53.364;-1.480;2022-09-24T02:39:30;9.30;99.90
21259;DHT22;10787;53.364;-1.480;2022-09-24T02:41:56;9.20;99.90
21259;DHT22;10787;53.364;-1.480;2022-09-24T02:44:23;9.20;99.90
21259;DHT22;10787;53.364;-1.480;2022-09-24T02:46:49;9.20;99.90
21259;DHT22;10787;53.364;-1.480;2022-09-24T02:49:15;9.20;99.90
21259;DHT22;10787;53.364;-1.480;2022-09-24T02:51:42;9.30;99.90
21259;DHT22;10787;53.364;-1.480;2022-09-24T02:54:09;9.30;99.90
21259;DHT22;10787;53.364;-1.480;2022-09-24T02:56:35;9.30;99.90
21259;DHT22;10787;53.364;-1.480;2022-09-24T02:59:01;9.40;99.90
21259;DHT22;10787;53.364;-1.480;2022-09-24T03:01:29;9.40;99.90
21259;DHT22;10787;53.364;-1.480;2022-09-24T03:03:55;9.40;99.90
21259;DHT22;10787;53.364;-1.480;2022-09-24T03:06:21;9.40;99.90
21259;DHT22;10787;53.364;-1.480;2022-09-24T03:08:49;9.30;99.90
21259;DHT22;10787;53.364;-1.480;2022-09-24T03:11:16;9.20;99.90
21259;DHT22;10787;53.364;-1.480;2022-09-24T03:13:42;9.30;99.90
21259;DHT22;10787;53.364;-1.480;2022-09-24T03:16:08;9.30;99.90
21259;DHT22;10787;53.364;-1.480;2022-09-24T03:18:34;9.40;99.90
21259;DHT22;10787;53.364;-1.480;2022-09-24T03:21:03;9.40;99.90
21259;DHT22;10787;53.364;-1.480;2022-09-24T03:23:30;9.30;99.90
21259;DHT22;10787;53.364;-1.480;2022-09-24T03:25:56;9.40;99.90
21259;DHT22;10787;53.364;-1.480;2022-09-24T03:28:22;9.40;99.90
21259;DHT22;10787;53.364;-1.480;2022-09-24T03:30:48;9.50;99.90
21259;DHT22;10787;53.364;-1.480;2022-09-24T03:33:38;9.60;99.90
21259;DHT22;10787;53.364;-1.480;2022-09-24T03:36:15;9.70;99.90
21259;DHT22;10787;53.364;-1.480;2022-09-24T03:38:43;9.80;99.90
21259;DHT22;10787;53.364;-1.480;2022-09-24T03:41:11;9.80;99.90
21259;DHT22;10787;53.364;-1.480;2022-09-24T03:43:37;9.90;99.90
21259;DHT22;10787;53.364;-1.480;2022-09-24T03:46:04;10.00;99.90
21259;DHT22;10787;53.364;-1.480;2022-09-24T03:48:36;10.00;99.90
21259;DHT22;10787;53.364;-1.480;2022-09-24T03:51:09;10.10;99.90
21259;DHT22;10787;53.364;-1.480;2022-09-24T03:53:35;10.10;99.90
21259;DHT22;10787;53.364;-1.480;2022-09-24T03:56:02;10.20;99.90
21259;DHT22;10787;53.364;-1.480;2022-09-24T03:58:29;10.20;99.90
21259;DHT22;10787;53.364;-1.480;2022-09-24T04:00:56;10.30;99.90
21259;DHT22;10787;53.364;-1.480;2022-09-24T04:03:23;10.30;99.90
21259;DHT22;10787;53.364;-1.480;2022-09-24T04:05:49;10.30;99.90
21259;DHT22;10787;53.364;-1.480;2022-09-24T04:08:16;10.30;99.90
21259;DHT22;10787;53.364;-1.480;2022-09-24T04:10:44;10.30;99.90
21259;DHT22;10787;53.364;-1.480;2022-09-24T04:13:12;10.30;99.90
21259;DHT22;10787;53.364;-1.480;2022-09-24T04:15:38;10.30;99.90
21259;DHT22;10787;53.364;-1.480;2022-09-24T04:18:04;10.20;99.90
21259;DHT22;10787;53.364;-1.480;2022-09-24T04:20:30;10.20;99.90
21259;DHT22;10787;53.364;-1.480;2022-09-24T04:22:58;10.10;99.90
21259;DHT22;10787;53.364;-1.480;2022-09-24T04:25:26;10.10;99.90
21259;DHT22;10787;53.364;-1.480;2022-09-24T04:27:55;10.00;99.90
21259;DHT22;10787;53.364;-1.480;2022-09-24T04:30:22;9.90;99.90
21259;DHT22;10787;53.364;-1.480;2022-09-24T04:32:48;9.90;99.90
21259;DHT22;10787;53.364;-1.480;2022-09-24T04:35:20;9.90;99.90
21259;DHT22;10787;53.364;-1.480;2022-09-24T04:37:46;9.90;99.90
21259;DHT22;10787;53.364;-1.480;2022-09-24T04:40:13;9.90;99.90
21259;DHT22;10787;53.364;-1.480;2022-09-24T04:42:42;9.90;99.90
21259;DHT22;10787;53.364;-1.480;2022-09-24T04:45:10;9.90;99.90
21259;DHT22;10787;53.364;-1.480;2022-09-24T04:47:36;10.00;99.90
21259;DHT22;10787;53.364;-1.480;2022-09-24T04:50:05;10.10;99.90
21259;DHT22;10787;53.364;-1.480;2022-09-24T04:52:32;10.10;99.90
21259;DHT22;10787;53.364;-1.480;2022-09-24T04:55:01;10.20;99.90
21259;DHT22;10787;53.364;-1.480;2022-09-24T04:57:29;10.30;99.90
21259;DHT22;10787;53.364;-1.480;2022-09-24T04:59:59;10.30;99.90
21259;DHT22;10787;53.364;-1.480;2022-09-24T05:02:26;10.30;99.90
21259;DHT22;10787;53.364;-1.480;2022-09-24T05:04:51;10.30;99.90
21259;DHT22;10787;53.364;-1.480;2022-09-24T05:07:17;10.40;99.90
21259;DHT22;10787;53.364;-1.480;2022-09-24T05:09:43;10.40;99.90
21259;DHT22;10787;53.364;-1.480;2022-09-24T05:12:08;10.40;99.90
21259;DHT22;10787;53.364;-1.480;2022-09-24T05:14:34;10.40;99.90
21259;DHT22;10787;53.364;-1.480;2022-09-24T05:17:00;10.30;99.90
21259;DHT22;10787;53.364;-1.480;2022-09-24T05:19:26;10.30;99.90
21259;DHT22;10787;53.364;-1.480;2022-09-24T05:21:52;10.40;99.90
21259;DHT22;10787;53.364;-1.480;2022-09-24T05:24:18;10.40;99.90
21259;DHT22;10787;53.364;-1.480;2022-09-24T05:26:44;10.40;99.90
21259;DHT22;10787;53.364;-1.480;2022-09-24T05:29:28;10.50;99.90
21259;DHT22;10787;53.364;-1.480;2022-09-24T05:31:54;10.50;99.90
21259;DHT22;10787;53.364;-1.480;2022-09-24T05:34:20;10.60;99.90
21259;DHT22;10787;53.364;-1.480;2022-09-24T05:36:46;10.50;99.90
21259;DHT22;10787;53.364;-1.480;2022-09-24T05:39:11;10.50;99.90
21259;DHT22;10787;53.364;-1.480;2022-09-24T05:41:38;10.50;99.90
21259;DHT22;10787;53.364;-1.480;2022-09-24T05:44:05;10.60;99.90
21259;DHT22;10787;53.364;-1.480;2022-09-24T05:46:31;10.60;99.90
21259;DHT22;10787;53.364;-1.480;2022-09-24T05:48:58;10.60;99.90
21259;DHT22;10787;53.364;-1.480;2022-09-24T05:51:24;10.50;99.90
21259;DHT22;10787;53.364;-1.480;2022-09-24T05:53:50;10.50;99.90
21259;DHT22;10787;53.364;-1.480;2022-09-24T05:56:16;10.50;99.90
21259;DHT22;10787;53.364;-1.480;2022-09-24T05:58:42;10.50;99.90
21259;DHT22;10787;53.364;-1.480;2022-09-24T06:01:08;10.50;99.90
21259;DHT22;10787;53.364;-1.480;2022-09-24T06:03:34;10.60;99.90
21259;DHT22;10787;53.364;-1.480;2022-09-24T06:06:00;10.60;99.90
21259;DHT22;10787;53.364;-1.480;2022-09-24T06:08:28;10.60;99.90
21259;DHT22;10787;53.364;-1.480;2022-09-24T06:11:03;10.70;99.90
21259;DHT22;10787;53.364;-1.480;2022-09-24T06:13:30;10.70;99.90
21259;DHT22;10787;53.364;-1.480;2022-09-24T06:16:04;10.80;99.90
21259;DHT22;10787;53.364;-1.480;2022-09-24T06:18:35;10.80;99.90
21259;DHT22;10787;53.364;-1.480;2022-09-24T06:21:04;10.90;99.90
21259;DHT22;10787;53.364;-1.480;2022-09-24T06:23:35;11.00;99.90
21259;DHT22;10787;53.364;-1.480;2022-09-24T06:26:02;11.10;99.90
21259;DHT22;10787;53.364;-1.480;2022-09-24T06:28:28;11.20;99.90
21259;DHT22;10787;53.364;-1.480;2022-09-24T06:30:54;11.30;99.90
21259;DHT22;10787;53.364;-1.480;2022-09-24T06:33:20;11.30;99.90
21259;DHT22;10787;53.364;-1.480;2022-09-24T06:35:47;11.40;99.90
21259;DHT22;10787;53.364;-1.480;2022-09-24T06:38:15;11.50;99.90
21259;DHT22;10787;53.364;-1.480;2022-09-24T06:40:42;11.60;99.90
21259;DHT22;10787;53.364;-1.480;2022-09-24T06:43:10;11.60;99.90
21259;DHT22;10787;53.364;-1.480;2022-09-24T06:45:36;11.60;99.90
21259;DHT22;10787;53.364;-1.480;2022-09-24T06:48:04;11.70;99.90
21259;DHT22;10787;53.364;-1.480;2022-09-24T06:50:33;11.70;99.90
21259;DHT22;10787;53.364;-1.480;2022-09-24T06:53:03;11.70;99.90
21259;DHT22;10787;53.364;-1.480;2022-09-24T06:55:29;11.70;99.90
21259;DHT22;10787;53.364;-1.480;2022-09-24T06:58:21;11.80;99.90
21259;DHT22;10787;53.364;-1.480;2022-09-24T07:00:57;11.80;99.90
21259;DHT22;10787;53.364;-1.480;2022-09-24T07:03:25;11.90;99.90
21259;DHT22;10787;53.364;-1.480;2022-09-24T07:05:51;11.90;99.90
21259;DHT22;10787;53.364;-1.480;2022-09-24T07:08:17;12.00;99.90
21259;DHT22;10787;53.364;-1.480;2022-09-24T07:10:44;12.00;99.90
21259;DHT22;10787;53.364;-1.480;2022-09-24T07:13:13;12.10;99.90
21259;DHT22;10787;53.364;-1.480;2022-09-24T07:15:40;12.10;99.90
21259;DHT22;10787;53.364;-1.480;2022-09-24T07:18:09;12.20;99.90
21259;DHT22;10787;53.364;-1.480;2022-09-24T07:20:35;12.30;99.90
21259;DHT22;10787;53.364;-1.480;2022-09-24T07:23:04;12.30;99.90
21259;DHT22;10787;53.364;-1.480;2022-09-24T07:25:31;12.40;99.90
21259;DHT22;10787;53.364;-1.480;2022-09-24T07:28:08;12.40;99.90
21259;DHT22;10787;53.364;-1.480;2022-09-24T07:30:35;12.40;99.90
21259;DHT22;10787;53.364;-1.480;2022-09-24T07:33:01;12.40;99.90
21259;DHT22;10787;53.364;-1.480;2022-09-24T07:35:28;12.50;99.90
21259;DHT22;10787;53.364;-1.480;2022-09-24T07:38:00;12.50;99.90
21259;DHT22;10787;53.364;-1.480;2022-09-24T07:40:27;12.40;99.90
21259;DHT22;10787;53.364;-1.480;2022-09-24T07:42:54;12.40;99.90
21259;DHT22;10787;53.364;-1.480;2022-09-24T07:45:21;12.40;99.90
21259;DHT22;10787;53.364;-1.480;2022-09-24T07:47:47;12.40;99.90
21259;DHT22;10787;53.364;-1.480;2022-09-24T07:50:13;12.50;99.90
21259;DHT22;10787;53.364;-1.480;2022-09-24T07:52:39;12.50;99.90
21259;DHT22;10787;53.364;-1.480;2022-09-24T07:55:05;12.60;99.90
21259;DHT22;10787;53.364;-1.480;2022-09-24T07:57:31;12.60;99.90
21259;DHT22;10787;53.364;-1.480;2022-09-24T07:59:57;12.60;99.90
21259;DHT22;10787;53.364;-1.480;2022-09-24T08:02:23;12.60;99.90
21259;DHT22;10787;53.364;-1.480;2022-09-24T08:04:49;12.60;99.90
21259;DHT22;10787;53.364;-1.480;2022-09-24T08:07:15;12.60;99.90
21259;DHT22;10787;53.364;-1.480;2022-09-24T08:09:43;12.60;99.90
21259;DHT22;10787;53.364;-1.480;2022-09-24T08:12:09;12.50;99.90
21259;DHT22;10787;53.364;-1.480;2022-09-24T08:14:37;12.40;99.90
21259;DHT22;10787;53.364;-1.480;2022-09-24T08:17:03;12.40;99.90
21259;DHT22;10787;53.364;-1.480;2022-09-24T08:19:28;12.40;99.90
21259;DHT22;10787;53.364;-1.480;2022-09-24T08:21:55;12.40;99.90
21259;DHT22;10787;53.364;-1.480;2022-09-24T08:24:22;12.50;99.90
21259;DHT22;10787;53.364;-1.480;2022-09-24T08:26:48;12.60;99.90
21259;DHT22;10787;53.364;-1.480;2022-09-24T08:29:14;12.70;99.90
21259;DHT22;10787;53.364;-1.480;2022-09-24T08:31:40;12.80;99.90
21259;DHT22;10787;53.364;-1.480;2022-09-24T08:34:06;12.90;99.90
21259;DHT22;10787;53.364;-1.480;2022-09-24T08:36:32;13.00;99.90
21259;DHT22;10787;53.364;-1.480;2022-09-24T08:38:58;13.00;99.90
21259;DHT22;10787;53.364;-1.480;2022-09-24T08:44:18;13.20;99.90
21259;DHT22;10787;53.364;-1.480;2022-09-24T08:47:28;13.30;99.90
21259;DHT22;10787;53.364;-1.480;2022-09-24T08:55:13;13.70;99.90
21259;DHT22;10787;53.364;-1.480;2022-09-24T08:57:59;13.90;99.90
21259;DHT22;10787;53.364;-1.480;2022-09-24T09:00:40;13.90;99.90
21259;DHT22;10787;53.364;-1.480;2022-09-24T09:03:23;13.90;99.90
21259;DHT22;10787;53.364;-1.480;2022-09-24T09:05:52;13.80;99.90
21259;DHT22;10787;53.364;-1.480;2022-09-24T09:08:33;13.70;99.90
21259;DHT22;10787;53.364;-1.480;2022-09-24T09:11:01;13.50;99.90
21259;DHT22;10787;53.364;-1.480;2022-09-24T09:13:35;13.50;99.90
21259;DHT22;10787;53.364;-1.480;2022-09-24T09:16:17;13.60;99.90
21259;DHT22;10787;53.364;-1.480;2022-09-24T09:18:48;13.70;99.90
21259;DHT22;10787;53.364;-1.480;2022-09-24T09:23:50;14.20;99.90
21259;DHT22;10787;53.364;-1.480;2022-09-24T09:26:17;14.20;99.90
21259;DHT22;10787;53.364;-1.480;2022-09-24T09:28:46;14.30;99.90
21259;DHT22;10787;53.364;-1.480;2022-09-24T09:31:27;14.30;99.90
21259;DHT22;10787;53.364;-1.480;2022-09-24T09:39:34;14.50;99.90
21259;DHT22;10787;53.364;-1.480;2022-09-24T09:44:48;15.40;99.90
21259;DHT22;10787;53.364;-1.480;2022-09-24T09:50:08;15.90;99.90
21259;DHT22;10787;53.364;-1.480;2022-09-24T09:52:38;16.00;99.90
21259;DHT22;10787;53.364;-1.480;2022-09-24T09:55:05;15.90;99.90
21259;DHT22;10787;53.364;-1.480;2022-09-24T09:57:33;16.00;99.90
21259;DHT22;10787;53.364;-1.480;2022-09-24T10:00:01;16.10;99.90
21259;DHT22;10787;53.364;-1.480;2022-09-24T10:02:29;16.30;99.90
21259;DHT22;10787;53.364;-1.480;2022-09-24T10:04:58;16.50;99.90
21259;DHT22;10787;53.364;-1.480;2022-09-24T10:07:24;16.60;99.90
21259;DHT22;10787;53.364;-1.480;2022-09-24T10:10:10;16.60;99.90
21259;DHT22;10787;53.364;-1.480;2022-09-24T10:12:41;16.60;99.90
21259;DHT22;10787;53.364;-1.480;2022-09-24T10:15:18;16.50;99.90
21259;DHT22;10787;53.364;-1.480;2022-09-24T10:17:45;16.60;99.90
21259;DHT22;10787;53.364;-1.480;2022-09-24T10:22:49;16.80;99.90
21259;DHT22;10787;53.364;-1.480;2022-09-24T10:25:21;17.10;99.90
21259;DHT22;10787;53.364;-1.480;2022-09-24T10:27:54;17.30;99.90
21259;DHT22;10787;53.364;-1.480;2022-09-24T10:30:57;17.40;99.90
21259;DHT22;10787;53.364;-1.480;2022-09-24T10:33:25;17.70;99.90
21259;DHT22;10787;53.364;-1.480;2022-09-24T10:36:03;17.90;99.90
21259;DHT22;10787;53.364;-1.480;2022-09-24T10:38:30;17.70;99.90
21259;DHT22;10787;53.364;-1.480;2022-09-24T10:40:56;17.60;99.90
21259;DHT22;10787;53.364;-1.480;2022-09-24T10:43:23;17.50;99.90
21259;DHT22;10787;53.364;-1.480;2022-09-24T10:51:56;16.70;99.90
21259;DHT22;10787;53.364;-1.480;2022-09-24T11:00:20;16.90;99.90
21259;DHT22;10787;53.364;-1.480;2022-09-24T11:06:03;17.30;99.90
21259;DHT22;10787;53.364;-1.480;2022-09-24T11:08:53;17.50;99.90
21259;DHT22;10787;53.364;-1.480;2022-09-24T11:14:34;17.70;99.90
21259;DHT22;10787;53.364;-1.480;2022-09-24T11:20:35;18.10;99.90
21259;DHT22;10787;53.364;-1.480;2022-09-24T11:28:56;18.60;99.90
21259;DHT22;10787;53.364;-1.480;2022-09-24T11:34:20;18.60;99.90
21259;DHT22;10787;53.364;-1.480;2022-09-24T11:40:03;18.70;99.90
21259;DHT22;10787;53.364;-1.480;2022-09-24T11:43:03;18.80;99.90
21259;DHT22;10787;53.364;-1.480;2022-09-24T11:45:47;18.50;99.90
21259;DHT22;10787;53.364;-1.480;2022-09-24T11:53:57;17.90;99.90
21259;DHT22;10787;53.364;-1.480;2022-09-24T11:56:40;17.90;99.90
21259;DHT22;10787;53.364;-1.480;2022-09-24T11:59:16;17.80;99.90
21259;DHT22;10787;53.364;-1.480;2022-09-24T12:01:57;17.50;99.90
21259;DHT22;10787;53.364;-1.480;2022-09-24T12:07:16;17.30;99.90
21259;DHT22;10787;53.364;-1.480;2022-09-24T12:17:26;17.00;99.90
21259;DHT22;10787;53.364;-1.480;2022-09-24T12:20:00;17.10;99.90
21259;DHT22;10787;53.364;-1.480;2022-09-24T12:22:29;17.10;99.90
21259;DHT22;10787;53.364;-1.480;2022-09-24T12:24:58;16.90;99.90
21259;DHT22;10787;53.364;-1.480;2022-09-24T12:33:06;17.10;99.90
21259;DHT22;10787;53.364;-1.480;2022-09-24T12:36:47;17.80;99.90
21259;DHT22;10787;53.364;-1.480;2022-09-24T12:38:49;18.90;99.90
21259;DHT22;10787;53.364;-1.480;2022-09-24T12:41:38;19.20;99.90
21259;DHT22;10787;53.364;-1.480;2022-09-24T12:52:01;18.20;99.90
21259;DHT22;10787;53.364;-1.480;2022-09-24T12:57:04;18.20;99.90
21259;DHT22;10787;53.364;-1.480;2022-09-24T12:59:31;18.20;99.90
21259;DHT22;10787;53.364;-1.480;2022-09-24T13:02:16;18.40;99.90
21259;DHT22;10787;53.364;-1.480;2022-09-24T13:04:49;18.60;99.90
21259;DHT22;10787;53.364;-1.480;2022-09-24T13:07:27;19.20;99.90
21259;DHT22;10787;53.364;-1.480;2022-09-24T13:09:53;19.30;99.90
21259;DHT22;10787;53.364;-1.480;2022-09-24T13:12:30;19.10;99.90
21259;DHT22;10787;53.364;-1.480;2022-09-24T13:17:30;18.50;99.90
21259;DHT22;10787;53.364;-1.480;2022-09-24T13:20:05;19.00;99.90
21259;DHT22;10787;53.364;-1.480;2022-09-24T13:22:33;20.50;99.90
21259;DHT22;10787;53.364;-1.480;2022-09-24T13:25:22;22.00;99.90
21259;DHT22;10787;53.364;-1.480;2022-09-24T13:28:02;22.00;99.90
21259;DHT22;10787;53.364;-1.480;2022-09-24T13:35:33;19.80;99.90
21259;DHT22;10787;53.364;-1.480;2022-09-24T13:38:08;19.40;99.90
21259;DHT22;10787;53.364;-1.480;2022-09-24T13:40:42;18.90;99.90
21259;DHT22;10787;53.364;-1.480;2022-09-24T13:43:14;19.00;99.90
21259;DHT22;10787;53.364;-1.480;2022-09-24T13:45:41;18.80;99.90
21259;DHT22;10787;53.364;-1.480;2022-09-24T13:48:30;18.60;99.90
21259;DHT22;10787;53.364;-1.480;2022-09-24T13:50:59;18.50;99.90
21259;DHT22;10787;53.364;-1.480;2022-09-24T13:56:04;18.40;99.90
21259;DHT22;10787;53.364;-1.480;2022-09-24T13:58:32;18.40;99.90
21259;DHT22;10787;53.364;-1.480;2022-09-24T14:01:02;18.20;99.90
21259;DHT22;10787;53.364;-1.480;2022-09-24T14:05:56;18.20;99.90
21259;DHT22;10787;53.364;-1.480;2022-09-24T14:08:23;18.30;99.90
21259;DHT22;10787;53.364;-1.480;2022-09-24T14:11:03;18.10;99.90
21259;DHT22;10787;53.364;-1.480;2022-09-24T14:13:34;18.00;99.90
21259;DHT22;10787;53.364;-1.480;2022-09-24T14:16:19;18.00;99.90
21259;DHT22;10787;53.364;-1.480;2022-09-24T14:18:47;18.10;99.90
21259;DHT22;10787;53.364;-1.480;2022-09-24T14:21:23;18.10;99.90
21259;DHT22;10787;53.364;-1.480;2022-09-24T14:24:16;18.20;99.90
21259;DHT22;10787;53.364;-1.480;2022-09-24T14:27:03;18.20;99.90
21259;DHT22;10787;53.364;-1.480;2022-09-24T14:30:03;18.20;99.90
21259;DHT22;10787;53.364;-1.480;2022-09-24T14:32:35;18.30;99.90
21259;DHT22;10787;53.364;-1.480;2022-09-24T14:35:49;18.20;99.90
21259;DHT22;10787;53.364;-1.480;2022-09-24T14:38:18;18.20;99.90
21259;DHT22;10787;53.364;-1.480;2022-09-24T14:46:22;18.70;99.90
21259;DHT22;10787;53.364;-1.480;2022-09-24T14:48:50;19.00;99.90
21259;DHT22;10787;53.364;-1.480;2022-09-24T14:51:34;19.40;99.90
21259;DHT22;10787;53.364;-1.480;2022-09-24T14:56:47;21.70;99.90
21259;DHT22;10787;53.364;-1.480;2022-09-24T14:59:24;21.70;99.90
21259;DHT22;10787;53.364;-1.480;2022-09-24T15:02:20;21.90;99.90
21259;DHT22;10787;53.364;-1.480;2022-09-24T15:05:07;21.60;99.90
21259;DHT22;10787;53.364;-1.480;2022-09-24T15:07:34;21.90;99.90
21259;DHT22;10787;53.364;-1.480;2022-09-24T15:10:02;23.10;99.90
21259;DHT22;10787;53.364;-1.480;2022-09-24T15:12:36;24.20;99.90
21259;DHT22;10787;53.364;-1.480;2022-09-24T15:17:46;24.50;99.90
21259;DHT22;10787;53.364;-1.480;2022-09-24T15:20:13;24.80;99.90
21259;DHT22;10787;53.364;-1.480;2022-09-24T15:22:39;24.30;99.90
21259;DHT22;10787;53.364;-1.480;2022-09-24T15:25:05;23.40;99.90
21259;DHT22;10787;53.364;-1.480;2022-09-24T15:27:35;22.60;99.90
21259;DHT22;10787;53.364;-1.480;2022-09-24T15:30:04;22.10;99.90
21259;DHT22;10787;53.364;-1.480;2022-09-24T15:32:31;22.50;99.90
21259;DHT22;10787;53.364;-1.480;2022-09-24T15:34:59;23.30;99.90
21259;DHT22;10787;53.364;-1.480;2022-09-24T15:37:28;23.90;99.90
21259;DHT22;10787;53.364;-1.480;2022-09-24T15:40:04;23.10;99.90
21259;DHT22;10787;53.364;-1.480;2022-09-24T15:42:30;22.10;99.90
21259;DHT22;10787;53.364;-1.480;2022-09-24T15:44:57;21.30;99.90
21259;DHT22;10787;53.364;-1.480;2022-09-24T15:47:23;20.80;99.90
21259;DHT22;10787;53.364;-1.480;2022-09-24T15:49:48;20.40;99.90
21259;DHT22;10787;53.364;-1.480;2022-09-24T15:54:41;22.00;99.90
21259;DHT22;10787;53.364;-1.480;2022-09-24T15:57:11;22.80;99.90
21259;DHT22;10787;53.364;-1.480;2022-09-24T15:59:37;23.80;99.90
21259;DHT22;10787;53.364;-1.480;2022-09-24T16:02:10;24.30;99.90
21259;DHT22;10787;53.364;-1.480;2022-09-24T16:04:36;24.80;99.90
21259;DHT22;10787;53.364;-1.480;2022-09-24T16:07:02;25.20;99.90
21259;DHT22;10787;53.364;-1.480;2022-09-24T16:09:27;25.40;99.90
21259;DHT22;10787;53.364;-1.480;2022-09-24T16:11:53;24.70;99.90
21259;DHT22;10787;53.364;-1.480;2022-09-24T16:14:19;24.80;99.90
21259;DHT22;10787;53.364;-1.480;2022-09-24T16:16:45;24.60;99.90
21259;DHT22;10787;53.364;-1.480;2022-09-24T16:19:12;23.70;99.90
21259;DHT22;10787;53.364;-1.480;2022-09-24T16:21:38;23.60;99.90
21259;DHT22;10787;53.364;-1.480;2022-09-24T16:24:04;23.90;99.90
21259;DHT22;10787;53.364;-1.480;2022-09-24T16:26:30;24.20;99.90
21259;DHT22;10787;53.364;-1.480;2022-09-24T16:28:57;24.30;99.90
21259;DHT22;10787;53.364;-1.480;2022-09-24T16:31:22;24.60;99.90
21259;DHT22;10787;53.364;-1.480;2022-09-24T16:33:48;24.90;99.90
21259;DHT22;10787;53.364;-1.480;2022-09-24T16:36:21;24.70;99.90
21259;DHT22;10787;53.364;-1.480;2022-09-24T16:38:49;24.70;99.90
21259;DHT22;10787;53.364;-1.480;2022-09-24T16:41:15;24.30;99.90
21259;DHT22;10787;53.364;-1.480;2022-09-24T16:43:41;23.50;99.90
21259;DHT22;10787;53.364;-1.480;2022-09-24T16:46:08;22.70;99.90
21259;DHT22;10787;53.364;-1.480;2022-09-24T16:48:35;21.50;99.90
21259;DHT22;10787;53.364;-1.480;2022-09-24T16:51:09;20.60;99.90
21259;DHT22;10787;53.364;-1.480;2022-09-24T16:53:36;19.70;99.90
21259;DHT22;10787;53.364;-1.480;2022-09-24T16:56:12;18.80;99.90
21259;DHT22;10787;53.364;-1.480;2022-09-24T16:58:42;18.00;99.90
21259;DHT22;10787;53.364;-1.480;2022-09-24T17:01:13;17.70;99.90
21259;DHT22;10787;53.364;-1.480;2022-09-24T17:03:40;17.20;99.90
21259;DHT22;10787;53.364;-1.480;2022-09-24T17:06:07;17.00;99.90
21259;DHT22;10787;53.364;-1.480;2022-09-24T17:08:34;16.90;99.90
21259;DHT22;10787;53.364;-1.480;2022-09-24T17:11:21;16.80;99.90
21259;DHT22;10787;53.364;-1.480;2022-09-24T17:13:47;16.70;99.90
21259;DHT22;10787;53.364;-1.480;2022-09-24T17:16:14;16.50;99.90
21259;DHT22;10787;53.364;-1.480;2022-09-24T17:18:40;16.40;99.90
21259;DHT22;10787;53.364;-1.480;2022-09-24T17:21:09;16.30;99.90
21259;DHT22;10787;53.364;-1.480;2022-09-24T17:23:36;16.20;99.90
21259;DHT22;10787;53.364;-1.480;2022-09-24T17:26:09;16.10;99.90
21259;DHT22;10787;53.364;-1.480;2022-09-24T17:28:41;15.90;99.90
21259;DHT22;10787;53.364;-1.480;2022-09-24T17:31:08;15.80;99.90
21259;DHT22;10787;53.364;-1.480;2022-09-24T17:33:34;15.70;99.90
21259;DHT22;10787;53.364;-1.480;2022-09-24T17:36:04;15.60;99.90
21259;DHT22;10787;53.364;-1.480;2022-09-24T17:38:31;15.60;99.90
21259;DHT22;10787;53.364;-1.480;2022-09-24T17:41:06;15.60;99.90
21259;DHT22;10787;53.364;-1.480;2022-09-24T17:43:33;15.50;99.90
21259;DHT22;10787;53.364;-1.480;2022-09-24T17:46:01;15.40;99.90
21259;DHT22;10787;53.364;-1.480;2022-09-24T17:48:29;15.30;99.90
21259;DHT22;10787;53.364;-1.480;2022-09-24T17:50:56;15.30;99.90
21259;DHT22;10787;53.364;-1.480;2022-09-24T17:53:23;15.20;99.90
21259;DHT22;10787;53.364;-1.480;2022-09-24T17:55:51;15.10;99.90